This is the latest recevied weather packets stored in our database for station/object KA1BMF-13. If no packets are shown the sender has not sent any weather packets the latest 10 day(s).
| Time | Temp. | Humidity | Pressure | Rain* | Wind** | Luminosity | Snow |
|---|---|---|---|---|---|---|---|
| 1787774118 | 25° C | 70% | 1017.2 hPa | 0 mm | - | 254 W/m² | - |
| 1787773518 | 25.56° C | 68% | 1017.3 hPa | 0 mm | - | 201 W/m² | - |
| 1787772319 | 25.56° C | 66% | 1017.3 hPa | 0 mm | - | 720 W/m² | - |
| 1787771721 | 24.44° C | 73% | 1017.3 hPa | 0 mm | - | 757 W/m² | - |
| 1787771119 | 25° C | 72% | 1017.4 hPa | 0 mm | - | 168 W/m² | - |
| 1787770516 | 25.56° C | 67% | 1017.5 hPa | 0 mm | - | 114 W/m² | - |
| 1787769919 | 25.56° C | 64% | 1017.6 hPa | 0 mm | - | 280 W/m² | - |
| 1787769319 | 25° C | 64% | 1017.7 hPa | 0 mm | - | 580 W/m² | - |
| 1787768719 | 25.56° C | 66% | 1017.7 hPa | 0 mm | - | 290 W/m² | - |
| 1787768117 | 25.56° C | 65% | 1017.8 hPa | 0 mm | - | 450 W/m² | - |
| 1787767522 | 25.56° C | 64% | 1017.8 hPa | 0 mm | - | 458 W/m² | - |
| 1787766917 | 25.56° C | 62% | 1017.8 hPa | 0 mm | - | 886 W/m² | - |
| 1787766320 | 25.56° C | 62% | 1017.8 hPa | 0 mm | - | 612 W/m² | - |
| 1787765718 | 25° C | 63% | 1017.9 hPa | 0 mm | - | 914 W/m² | - |
| 1787765119 | 25° C | 64% | 1017.9 hPa | 0 mm | - | 940 W/m² | - |
| 1787764518 | 24.44° C | 66% | 1017.9 hPa | 0 mm | - | 905 W/m² | - |
| 1787763918 | 24.44° C | 66% | 1018 hPa | 0 mm | - | 850 W/m² | - |
| 1787763318 | 23.89° C | 68% | 1018.1 hPa | 0 mm | - | 835 W/m² | - |
| 1787762719 | 23.89° C | 68% | 1018 hPa | 0 mm | - | 595 W/m² | - |
| 1787762118 | 23.89° C | 69% | 1018.1 hPa | 0 mm | - | 506 W/m² | - |
| 1787761519 | 24.44° C | 69% | 1018.2 hPa | 0 mm | - | 812 W/m² | - |
| 1787760919 | 23.89° C | 69% | 1018.2 hPa | 0 mm | - | 519 W/m² | - |
| 1787760316 | 23.89° C | 67% | 1018.2 hPa | 0 mm | - | 687 W/m² | - |
| 1787759719 | 23.89° C | 70% | 1018.2 hPa | 0 mm | - | 599 W/m² | - |
| 1787759119 | 23.89° C | 69% | 1018.3 hPa | 0 mm | - | 483 W/m² | - |
* Rain latest hour (hover to see other rain measurements)
** Current wind speed in m/s (hover to see current wind gust speed)